Guriat, Saudi Arabia
Current Conditions -  °F | °C
As of 4:00 PM on Sunday 23 Nov 2014 (Local Time) from OEGT Reporting Station
Scattered Clouds Scattered Clouds  
Wind Chill: 64°   Ceiling: Unl
Heat Index: 64°   Visibility: 6mi
Dew Point: 39°   Wind: 2mph
Humidity: 40%   Direction: 110°ESE
Pressure: 29.97"   Gusts: NA
Location:  31.41°N, 37.28°E
Report Text: OEGT 231300Z 11002KT 9999 SCT040 18/04 Q1015 NOSIG
Loading
Personal Weather Stations






























Interactive Weather Map New forecast layout! Learn more

10-Day Weather Forecast

Advertisements
Track Severe Weather on mobile